aviador You're here:

KLPC Decoded Metar

LOMPOC in CA, USA
Report Time2017-07-26 21:56:00
UTC Time2017-07-26 22:30:04
Flight Rules vfr VFR
Wind270° at 16 Gusting to 19 kt
W.Decomp.*RWY 25: 15.9 kt HW 1.4 kt RCW
W.Rank270° ranks 1
Current wind is above 270° avg. (9.0)
Visibility9999 m
Phenomena:N/A
Clouds:N/A
Expected CloudBase > 2,400 ft AGL from Temp-Dew spread
CeilingNone
Temp21°C (ISA +6)
Dew Point15°C (69% RH)
AAT16.9°C
QNH1016 hPa
Density Alt935 ft
Elevation89 ft
Report Wrong Elevation
Raw Report
KLPC 262156Z AUTO 27016G19KT 10SM CLR 21/15 A3001 RMK AO2 SLP165
T02060150=

Extra information for KLPC:More info

Metar Taf Metar & Taf Last 4 Metars F.Rules Stats Wind Profile Meteogram Temp Stats Airport Information Weather charts Add Link Nearby VenuesMetar ALERT Operation Metar Decoded Social comments

AIRNAV info for KLPC